sensor_id;sensor_type;location;lat;lon;timestamp;pressure;altitude;pressure_sealevel;temperature;humidity
35248;BME280;21380;52.194;20.520;2022-09-21T00:01:09;100693.56;;;19.85;63.99
35248;BME280;21380;52.194;20.520;2022-09-21T00:03:36;100706.69;;;19.91;64.17
35248;BME280;21380;52.194;20.520;2022-09-21T00:06:10;100697.09;;;19.86;64.63
35248;BME280;21380;52.194;20.520;2022-09-21T00:08:36;100707.56;;;19.90;64.09
35248;BME280;21380;52.194;20.520;2022-09-21T00:11:04;100710.19;;;19.90;64.16
35248;BME280;21380;52.194;20.520;2022-09-21T00:13:32;100713.69;;;19.89;64.30
35248;BME280;21380;52.194;20.520;2022-09-21T00:15:59;100699.66;;;19.83;64.30
35248;BME280;21380;52.194;20.520;2022-09-21T00:18:25;100718.03;;;19.89;64.32
35248;BME280;21380;52.194;20.520;2022-09-21T00:20:51;100718.94;;;19.89;64.39
35248;BME280;21380;52.194;20.520;2022-09-21T00:23:18;100707.56;;;19.89;64.42
35248;BME280;21380;52.194;20.520;2022-09-21T00:25:44;100699.66;;;19.84;64.39
35248;BME280;21380;52.194;20.520;2022-09-21T00:28:10;100704.94;;;19.87;64.41
35248;BME280;21380;52.194;20.520;2022-09-21T00:30:36;100705.78;;;19.86;64.37
35248;BME280;21380;52.194;20.520;2022-09-21T00:33:02;100708.41;;;19.86;64.48
35248;BME280;21380;52.194;20.520;2022-09-21T00:35:29;100708.41;;;19.85;64.71
35248;BME280;21380;52.194;20.520;2022-09-21T00:37:54;100710.13;;;19.84;64.29
35248;BME280;21380;52.194;20.520;2022-09-21T00:40:20;100711.03;;;19.85;64.59
35248;BME280;21380;52.194;20.520;2022-09-21T00:42:46;100712.75;;;19.84;64.63
35248;BME280;21380;52.194;20.520;2022-09-21T00:45:12;100714.50;;;19.84;64.70
35248;BME280;21380;52.194;20.520;2022-09-21T00:47:51;100711.03;;;19.83;64.65
35248;BME280;21380;52.194;20.520;2022-09-21T00:50:20;100698.72;;;19.79;64.68
35248;BME280;21380;52.194;20.520;2022-09-21T00:52:54;100713.56;;;19.80;64.59
35248;BME280;21380;52.194;20.520;2022-09-21T00:55:26;100710.09;;;19.81;64.66
35248;BME280;21380;52.194;20.520;2022-09-21T00:57:58;100715.34;;;19.81;64.67
35248;BME280;21380;52.194;20.520;2022-09-21T01:00:25;100714.47;;;19.81;64.56
35248;BME280;21380;52.194;20.520;2022-09-21T01:02:52;100713.56;;;19.80;64.65
35248;BME280;21380;52.194;20.520;2022-09-21T01:05:28;100717.03;;;19.77;64.73
35248;BME280;21380;52.194;20.520;2022-09-21T01:07:56;100720.56;;;19.80;64.84
35248;BME280;21380;52.194;20.520;2022-09-21T01:10:25;100719.66;;;19.79;65.03
35248;BME280;21380;52.194;20.520;2022-09-21T01:16:00;100718.81;;;19.77;64.77
35248;BME280;21380;52.194;20.520;2022-09-21T01:18:42;100725.75;;;19.76;65.07
35248;BME280;21380;52.194;20.520;2022-09-21T01:21:25;100719.66;;;19.76;64.94
35248;BME280;21380;52.194;20.520;2022-09-21T01:29:22;100731.84;;;19.74;65.12
35248;BME280;21380;52.194;20.520;2022-09-21T01:32:14;100728.38;;;19.73;65.12
35248;BME280;21380;52.194;20.520;2022-09-21T01:34:48;100728.31;;;19.69;65.00
35248;BME280;21380;52.194;20.520;2022-09-21T01:37:21;100731.84;;;19.72;65.19
35248;BME280;21380;52.194;20.520;2022-09-21T01:39:53;100722.19;;;19.64;64.96
35248;BME280;21380;52.194;20.520;2022-09-21T01:42:22;100737.94;;;19.71;64.97
35248;BME280;21380;52.194;20.520;2022-09-21T01:44:49;100743.16;;;19.68;65.26
35248;BME280;21380;52.194;20.520;2022-09-21T01:47:16;100744.03;;;19.69;65.29
35248;BME280;21380;52.194;20.520;2022-09-21T01:49:48;100745.78;;;19.68;65.37
35248;BME280;21380;52.194;20.520;2022-09-21T01:52:23;100751.88;;;19.69;65.24
35248;BME280;21380;52.194;20.520;2022-09-21T01:54:55;100731.75;;;19.61;65.33
35248;BME280;21380;52.194;20.520;2022-09-21T01:57:48;100750.13;;;19.68;65.26
35248;BME280;21380;52.194;20.520;2022-09-21T02:00:16;100754.50;;;19.67;65.41
35248;BME280;21380;52.194;20.520;2022-09-21T02:03:12;100757.97;;;19.66;65.17
35248;BME280;21380;52.194;20.520;2022-09-21T02:05:37;100749.25;;;19.66;65.08
35248;BME280;21380;52.194;20.520;2022-09-21T02:08:06;100752.72;;;19.66;65.24
35248;BME280;21380;52.194;20.520;2022-09-21T02:10:39;100757.97;;;19.65;65.33
35248;BME280;21380;52.194;20.520;2022-09-21T02:13:08;100745.72;;;19.62;65.37
35248;BME280;21380;52.194;20.520;2022-09-21T02:18:34;100755.34;;;19.65;65.29
35248;BME280;21380;52.194;20.520;2022-09-21T02:20:58;100750.06;;;19.60;64.78
35248;BME280;21380;52.194;20.520;2022-09-21T02:23:36;100756.19;;;19.64;65.29
35248;BME280;21380;52.194;20.520;2022-09-21T02:26:14;100762.28;;;19.63;65.37
35248;BME280;21380;52.194;20.520;2022-09-21T02:28:58;100755.31;;;19.61;65.32
35248;BME280;21380;52.194;20.520;2022-09-21T02:34:32;100756.19;;;19.62;65.15
35248;BME280;21380;52.194;20.520;2022-09-21T02:37:11;100764.03;;;19.62;65.29
35248;BME280;21380;52.194;20.520;2022-09-21T02:42:31;100770.13;;;19.61;65.36
35248;BME280;21380;52.194;20.520;2022-09-21T02:45:10;100764.03;;;19.60;65.18
35248;BME280;21380;52.194;20.520;2022-09-21T02:47:44;100779.75;;;19.60;65.41
35248;BME280;21380;52.194;20.520;2022-09-21T02:50:23;100774.50;;;19.60;65.29
35248;BME280;21380;52.194;20.520;2022-09-21T02:52:52;100768.38;;;19.57;65.14
35248;BME280;21380;52.194;20.520;2022-09-21T02:55:19;100763.13;;;19.57;65.30
35248;BME280;21380;52.194;20.520;2022-09-21T02:57:47;100775.31;;;19.56;65.33
35248;BME280;21380;52.194;20.520;2022-09-21T03:00:16;100780.56;;;19.58;65.27
35248;BME280;21380;52.194;20.520;2022-09-21T03:02:44;100781.47;;;19.58;65.28
35248;BME280;21380;52.194;20.520;2022-09-21T03:08:57;100779.69;;;19.57;65.15
35248;BME280;21380;52.194;20.520;2022-09-21T03:11:24;100782.31;;;19.57;65.43
35248;BME280;21380;52.194;20.520;2022-09-21T03:13:50;100773.53;;;19.52;65.31
35248;BME280;21380;52.194;20.520;2022-09-21T03:16:16;100782.31;;;19.56;64.89
35248;BME280;21380;52.194;20.520;2022-09-21T03:18:42;100783.16;;;19.56;65.19
35248;BME280;21380;52.194;20.520;2022-09-21T03:21:12;100781.41;;;19.55;65.24
35248;BME280;21380;52.194;20.520;2022-09-21T03:23:38;100770.03;;;19.49;65.39
35248;BME280;21380;52.194;20.520;2022-09-21T03:26:05;100771.78;;;19.50;65.39
35248;BME280;21380;52.194;20.520;2022-09-21T03:28:31;100780.53;;;19.55;65.62
35248;BME280;21380;52.194;20.520;2022-09-21T03:30:57;100784.03;;;19.54;65.26
35248;BME280;21380;52.194;20.520;2022-09-21T03:33:23;100786.63;;;19.52;65.44
35248;BME280;21380;52.194;20.520;2022-09-21T03:35:50;100779.69;;;19.54;65.29
35248;BME280;21380;52.194;20.520;2022-09-21T03:38:17;100779.63;;;19.48;65.17
35248;BME280;21380;52.194;20.520;2022-09-21T03:40:47;100788.38;;;19.53;65.25
35248;BME280;21380;52.194;20.520;2022-09-21T03:43:14;100784.00;;;19.52;65.34
35248;BME280;21380;52.194;20.520;2022-09-21T03:45:40;100786.63;;;19.52;65.18
35248;BME280;21380;52.194;20.520;2022-09-21T03:48:09;100786.63;;;19.52;65.25
35248;BME280;21380;52.194;20.520;2022-09-21T03:50:35;100792.72;;;19.53;65.32
35248;BME280;21380;52.194;20.520;2022-09-21T03:53:02;100797.09;;;19.52;65.36
35248;BME280;21380;52.194;20.520;2022-09-21T03:55:28;100792.72;;;19.53;65.25
35248;BME280;21380;52.194;20.520;2022-09-21T03:57:54;100798.84;;;19.52;64.62
35248;BME280;21380;52.194;20.520;2022-09-21T04:00:20;100811.03;;;19.51;65.35
35248;BME280;21380;52.194;20.520;2022-09-21T04:02:47;100807.56;;;19.51;65.08
35248;BME280;21380;52.194;20.520;2022-09-21T04:05:14;100806.66;;;19.50;65.56
35248;BME280;21380;52.194;20.520;2022-09-21T04:07:41;100806.66;;;19.49;65.27
35248;BME280;21380;52.194;20.520;2022-09-21T04:10:10;100806.66;;;19.50;65.40
35248;BME280;21380;52.194;20.520;2022-09-21T04:24:02;100816.28;;;19.51;65.10
35248;BME280;21380;52.194;20.520;2022-09-21T04:26:34;100816.28;;;19.51;65.10
35248;BME280;21380;52.194;20.520;2022-09-21T04:29:00;100815.41;;;19.51;65.00
35248;BME280;21380;52.194;20.520;2022-09-21T04:31:27;100815.41;;;19.51;64.96
35248;BME280;21380;52.194;20.520;2022-09-21T04:33:55;100817.13;;;19.50;64.93
35248;BME280;21380;52.194;20.520;2022-09-21T04:36:23;100825.88;;;19.51;64.97
35248;BME280;21380;52.194;20.520;2022-09-21T04:38:50;100811.81;;;19.42;65.00
35248;BME280;21380;52.194;20.520;2022-09-21T04:41:17;100830.22;;;19.50;65.04
35248;BME280;21380;52.194;20.520;2022-09-21T04:43:44;100831.94;;;19.48;65.11
35248;BME280;21380;52.194;20.520;2022-09-21T04:46:14;100838.91;;;19.49;64.80
35248;BME280;21380;52.194;20.520;2022-09-21T04:48:40;100840.66;;;19.49;64.86
35248;BME280;21380;52.194;20.520;2022-09-21T04:51:07;100834.56;;;19.48;64.89
35248;BME280;21380;52.194;20.520;2022-09-21T04:53:35;100845.03;;;19.48;64.91
35248;BME280;21380;52.194;20.520;2022-09-21T04:56:02;100832.72;;;19.39;64.85
35248;BME280;21380;52.194;20.520;2022-09-21T04:58:29;100844.13;;;19.46;64.92
35248;BME280;21380;52.194;20.520;2022-09-21T05:00:54;100847.66;;;19.48;64.81
35248;BME280;21380;52.194;20.520;2022-09-21T05:03:22;100846.75;;;19.48;65.02
35248;BME280;21380;52.194;20.520;2022-09-21T05:05:53;100850.25;;;19.48;64.96
35248;BME280;21380;52.194;20.520;2022-09-21T05:08:20;100857.22;;;19.48;64.73
35248;BME280;21380;52.194;20.520;2022-09-21T05:11:07;100854.59;;;19.46;65.12
35248;BME280;21380;52.194;20.520;2022-09-21T05:13:34;100852.78;;;19.40;64.87
35248;BME280;21380;52.194;20.520;2022-09-21T05:16:00;100850.22;;;19.47;64.92
35248;BME280;21380;52.194;20.520;2022-09-21T05:18:26;100836.16;;;19.35;64.85
35248;BME280;21380;52.194;20.520;2022-09-21T05:20:57;100855.44;;;19.45;64.63
35248;BME280;21380;52.194;20.520;2022-09-21T05:23:24;100854.59;;;19.44;64.84
35248;BME280;21380;52.194;20.520;2022-09-21T05:25:50;100865.94;;;19.47;64.86
35248;BME280;21380;52.194;20.520;2022-09-21T05:28:17;100851.91;;;19.40;64.56
35248;BME280;21380;52.194;20.520;2022-09-21T05:30:47;100861.53;;;19.44;64.92
35248;BME280;21380;52.194;20.520;2022-09-21T05:33:18;100858.91;;;19.42;64.64
35248;BME280;21380;52.194;20.520;2022-09-21T05:38:30;100851.84;;;19.32;64.75
35248;BME280;21380;52.194;20.520;2022-09-21T05:40:56;100873.78;;;19.47;64.53
35248;BME280;21380;52.194;20.520;2022-09-21T05:43:22;100873.75;;;19.45;64.58
35248;BME280;21380;52.194;20.520;2022-09-21T05:45:54;100878.13;;;19.46;64.50
35248;BME280;21380;52.194;20.520;2022-09-21T05:48:29;100876.38;;;19.43;64.45
35248;BME280;21380;52.194;20.520;2022-09-21T05:53:49;100884.22;;;19.45;64.44
35248;BME280;21380;52.194;20.520;2022-09-21T05:56:35;100877.22;;;19.44;64.40
35248;BME280;21380;52.194;20.520;2022-09-21T06:04:29;100879.81;;;19.39;64.46
35248;BME280;21380;52.194;20.520;2022-09-21T06:06:55;100889.47;;;19.45;64.47
35248;BME280;21380;52.194;20.520;2022-09-21T06:09:21;100891.22;;;19.44;64.42
35248;BME280;21380;52.194;20.520;2022-09-21T06:11:47;100890.34;;;19.46;64.38
35248;BME280;21380;52.194;20.520;2022-09-21T06:14:13;100895.56;;;19.44;64.39
35248;BME280;21380;52.194;20.520;2022-09-21T06:16:41;100894.69;;;19.47;64.34
35248;BME280;21380;52.194;20.520;2022-09-21T06:19:11;100889.44;;;19.43;64.46
35248;BME280;21380;52.194;20.520;2022-09-21T06:21:37;100895.56;;;19.44;64.32
35248;BME280;21380;52.194;20.520;2022-09-21T06:24:03;100899.94;;;19.45;64.22
35248;BME280;21380;52.194;20.520;2022-09-21T06:26:29;100892.00;;;19.40;64.17
35248;BME280;21380;52.194;20.520;2022-09-21T06:28:55;100899.94;;;19.45;64.17
35248;BME280;21380;52.194;20.520;2022-09-21T06:31:21;100901.66;;;19.43;64.38
35248;BME280;21380;52.194;20.520;2022-09-21T06:33:47;100896.47;;;19.46;64.18
35248;BME280;21380;52.194;20.520;2022-09-21T06:36:14;100903.44;;;19.46;64.34
35248;BME280;21380;52.194;20.520;2022-09-21T06:38:41;100909.53;;;19.44;64.17
35248;BME280;21380;52.194;20.520;2022-09-21T06:41:10;100899.00;;;19.41;64.17
35248;BME280;21380;52.194;20.520;2022-09-21T06:43:36;100906.06;;;19.47;64.14
35248;BME280;21380;52.194;20.520;2022-09-21T06:46:03;100893.63;;;18.64;65.41
35248;BME280;21380;52.194;20.520;2022-09-21T06:48:29;100904.50;;;18.94;65.88
35248;BME280;21380;52.194;20.520;2022-09-21T06:50:58;100889.81;;;19.01;65.37
35248;BME280;21380;52.194;20.520;2022-09-21T06:53:25;100899.53;;;19.11;65.02
35248;BME280;21380;52.194;20.520;2022-09-21T06:55:51;100908.34;;;19.19;64.77
35248;BME280;21380;52.194;20.520;2022-09-21T06:58:18;100903.16;;;19.22;64.41
35248;BME280;21380;52.194;20.520;2022-09-21T07:00:44;100905.78;;;19.25;64.41
35248;BME280;21380;52.194;20.520;2022-09-21T07:03:11;100916.31;;;19.28;64.38
35248;BME280;21380;52.194;20.520;2022-09-21T07:05:43;100906.66;;;19.24;64.17
35248;BME280;21380;52.194;20.520;2022-09-21T07:08:09;100911.09;;;19.32;64.21
35248;BME280;21380;52.194;20.520;2022-09-21T07:10:35;100912.84;;;19.31;64.17
35248;BME280;21380;52.194;20.520;2022-09-21T07:13:03;100925.09;;;19.35;64.08
35248;BME280;21380;52.194;20.520;2022-09-21T07:15:31;100924.25;;;19.36;64.14
35248;BME280;21380;52.194;20.520;2022-09-21T07:17:58;100923.38;;;19.37;64.11
35248;BME280;21380;52.194;20.520;2022-09-21T07:20:24;100908.47;;;19.32;64.11
35248;BME280;21380;52.194;20.520;2022-09-21T07:22:50;100921.63;;;19.36;64.01
35248;BME280;21380;52.194;20.520;2022-09-21T07:25:16;100917.31;;;19.38;63.92
35248;BME280;21380;52.194;20.520;2022-09-21T07:27:42;100926.91;;;19.41;63.96
35248;BME280;21380;52.194;20.520;2022-09-21T07:30:08;100919.03;;;19.38;63.94
35248;BME280;21380;52.194;20.520;2022-09-21T07:32:35;100918.16;;;19.37;63.97
35248;BME280;21380;52.194;20.520;2022-09-21T07:35:01;100937.41;;;19.42;64.31
35248;BME280;21380;52.194;20.520;2022-09-21T07:37:30;100935.63;;;19.40;63.94
35248;BME280;21380;52.194;20.520;2022-09-21T07:39:55;100931.31;;;19.42;64.09
35248;BME280;21380;52.194;20.520;2022-09-21T07:42:22;100932.19;;;19.44;63.86
35248;BME280;21380;52.194;20.520;2022-09-21T07:44:48;100932.19;;;19.44;64.04
35248;BME280;21380;52.194;20.520;2022-09-21T07:47:15;100929.56;;;19.44;64.02
35248;BME280;21380;52.194;20.520;2022-09-21T07:49:41;100937.44;;;19.46;63.83
35248;BME280;21380;52.194;20.520;2022-09-21T07:52:07;100930.47;;;19.44;64.02
35248;BME280;21380;52.194;20.520;2022-09-21T07:54:34;100925.22;;;19.43;63.78
35248;BME280;21380;52.194;20.520;2022-09-21T07:57:01;100936.59;;;19.48;63.63
35248;BME280;21380;52.194;20.520;2022-09-21T07:59:46;100938.34;;;19.49;63.89
35248;BME280;21380;52.194;20.520;2022-09-21T08:02:12;100936.59;;;19.48;64.08
35248;BME280;21380;52.194;20.520;2022-09-21T08:04:38;100937.47;;;19.49;64.00
35248;BME280;21380;52.194;20.520;2022-09-21T08:07:04;100943.56;;;19.49;63.78
35248;BME280;21380;52.194;20.520;2022-09-21T08:09:30;100943.56;;;19.49;63.97
35248;BME280;21380;52.194;20.520;2022-09-21T08:11:56;100942.72;;;19.50;63.92
35248;BME280;21380;52.194;20.520;2022-09-21T08:14:23;100927.84;;;19.43;63.94
35248;BME280;21380;52.194;20.520;2022-09-21T08:16:49;100926.09;;;19.43;63.77
35248;BME280;21380;52.194;20.520;2022-09-21T08:19:15;100947.09;;;19.50;63.76
35248;BME280;21380;52.194;20.520;2022-09-21T08:21:47;100953.25;;;19.53;63.99
35248;BME280;21380;52.194;20.520;2022-09-21T08:24:13;100948.88;;;19.55;63.91
35248;BME280;21380;52.194;20.520;2022-09-21T08:26:39;100935.72;;;19.49;64.08
35248;BME280;21380;52.194;20.520;2022-09-21T08:29:05;100948.88;;;19.55;63.97
35248;BME280;21380;52.194;20.520;2022-09-21T08:31:32;100950.66;;;19.56;63.85
35248;BME280;21380;52.194;20.520;2022-09-21T08:33:57;100952.41;;;19.57;63.80
35248;BME280;21380;52.194;20.520;2022-09-21T08:36:24;100952.41;;;19.59;63.84
35248;BME280;21380;52.194;20.520;2022-09-21T08:38:50;100954.19;;;19.60;63.71
35248;BME280;21380;52.194;20.520;2022-09-21T08:41:18;100961.16;;;19.59;63.84
35248;BME280;21380;52.194;20.520;2022-09-21T08:43:50;100963.78;;;19.59;63.98
35248;BME280;21380;52.194;20.520;2022-09-21T08:46:20;100954.19;;;19.60;63.86
35248;BME280;21380;52.194;20.520;2022-09-21T08:51:23;100955.03;;;19.59;63.70
35248;BME280;21380;52.194;20.520;2022-09-21T08:53:54;100959.41;;;19.60;63.77
35248;BME280;21380;52.194;20.520;2022-09-21T08:56:22;100960.25;;;19.59;63.86
35248;BME280;21380;52.194;20.520;2022-09-21T08:58:49;100959.41;;;19.60;63.81
35248;BME280;21380;52.194;20.520;2022-09-21T09:06:52;100956.78;;;19.60;63.98
35248;BME280;21380;52.194;20.520;2022-09-21T09:09:53;100955.06;;;19.60;63.78
35248;BME280;21380;52.194;20.520;2022-09-21T09:12:41;100947.22;;;19.60;63.78
35248;BME280;21380;52.194;20.520;2022-09-21T09:18:07;100943.66;;;19.55;63.76
35248;BME280;21380;52.194;20.520;2022-09-21T09:20:40;100955.03;;;19.59;63.79
35248;BME280;21380;52.194;20.520;2022-09-21T09:26:01;100946.34;;;19.61;63.73
35248;BME280;21380;52.194;20.520;2022-09-21T09:28:37;100951.56;;;19.60;63.79
35248;BME280;21380;52.194;20.520;2022-09-21T09:31:24;100948.03;;;19.58;63.64
35248;BME280;21380;52.194;20.520;2022-09-21T09:34:15;100953.34;;;19.63;63.75
35248;BME280;21380;52.194;20.520;2022-09-21T09:36:45;100947.22;;;19.62;63.68
35248;BME280;21380;52.194;20.520;2022-09-21T09:39:13;100945.47;;;19.61;63.76
35248;BME280;21380;52.194;20.520;2022-09-21T09:52:17;100942.88;;;19.63;63.66
35248;BME280;21380;52.194;20.520;2022-09-21T09:54:43;100944.63;;;19.64;63.74
35248;BME280;21380;52.194;20.520;2022-09-21T09:57:09;100945.50;;;19.64;63.67
35248;BME280;21380;52.194;20.520;2022-09-21T10:02:21;100949.00;;;19.63;63.65
35248;BME280;21380;52.194;20.520;2022-09-21T10:05:17;100953.34;;;19.64;63.53
35248;BME280;21380;52.194;20.520;2022-09-21T10:07:44;100939.34;;;19.59;63.85
35248;BME280;21380;52.194;20.520;2022-09-21T10:10:34;100949.88;;;19.64;63.64
35248;BME280;21380;52.194;20.520;2022-09-21T10:13:24;100948.09;;;19.63;63.70
35248;BME280;21380;52.194;20.520;2022-09-21T10:15:54;100948.09;;;19.64;63.48
35248;BME280;21380;52.194;20.520;2022-09-21T10:21:16;100950.72;;;19.64;63.62
35248;BME280;21380;52.194;20.520;2022-09-21T10:26:33;100941.94;;;19.57;63.40
35248;BME280;21380;52.194;20.520;2022-09-21T10:31:59;100946.38;;;19.63;63.58
35248;BME280;21380;52.194;20.520;2022-09-21T10:34:28;100941.16;;;19.65;63.30
35248;BME280;21380;52.194;20.520;2022-09-21T10:36:57;100925.38;;;19.57;63.50
35248;BME280;21380;52.194;20.520;2022-09-21T10:39:33;100943.78;;;19.65;63.39
35248;BME280;21380;52.194;20.520;2022-09-21T10:42:06;100945.53;;;19.66;63.46
35248;BME280;21380;52.194;20.520;2022-09-21T10:44:41;100942.03;;;19.65;63.45
35248;BME280;21380;52.194;20.520;2022-09-21T10:47:40;100942.03;;;19.67;63.28
35248;BME280;21380;52.194;20.520;2022-09-21T10:50:23;100941.16;;;19.66;63.13
35248;BME280;21380;52.194;20.520;2022-09-21T10:52:57;100939.38;;;19.62;63.14
35248;BME280;21380;52.194;20.520;2022-09-21T10:55:24;100934.13;;;19.60;63.44
35248;BME280;21380;52.194;20.520;2022-09-21T10:57:53;100941.16;;;19.66;63.50
35248;BME280;21380;52.194;20.520;2022-09-21T11:00:28;100935.91;;;19.65;63.35
35248;BME280;21380;52.194;20.520;2022-09-21T11:03:05;100939.41;;;19.65;63.27
35248;BME280;21380;52.194;20.520;2022-09-21T11:05:48;100927.16;;;19.59;63.27
35248;BME280;21380;52.194;20.520;2022-09-21T11:08:36;100935.06;;;19.66;63.32
35248;BME280;21380;52.194;20.520;2022-09-21T11:11:36;100926.28;;;19.60;63.44
35248;BME280;21380;52.194;20.520;2022-09-21T11:14:25;100929.75;;;19.59;63.36
35248;BME280;21380;52.194;20.520;2022-09-21T11:16:58;100939.41;;;19.65;63.34
35248;BME280;21380;52.194;20.520;2022-09-21T11:25:08;100932.44;;;19.66;63.24
35248;BME280;21380;52.194;20.520;2022-09-21T11:27:45;100942.91;;;19.66;63.28
35248;BME280;21380;52.194;20.520;2022-09-21T11:30:16;100943.78;;;19.65;63.19
35248;BME280;21380;52.194;20.520;2022-09-21T11:35:43;100938.53;;;19.65;63.47
35248;BME280;21380;52.194;20.520;2022-09-21T11:47:45;100938.47;;;19.61;63.41
35248;BME280;21380;52.194;20.520;2022-09-21T11:53:22;100943.72;;;19.61;63.38
35248;BME280;21380;52.194;20.520;2022-09-21T12:10:42;100942.84;;;19.59;63.16
35248;BME280;21380;52.194;20.520;2022-09-21T12:13:16;100936.75;;;19.60;63.22
35248;BME280;21380;52.194;20.520;2022-09-21T12:16:04;100930.63;;;19.60;63.22
35248;BME280;21380;52.194;20.520;2022-09-21T12:21:36;100936.75;;;19.60;63.39
35248;BME280;21380;52.194;20.520;2022-09-21T12:24:11;100926.28;;;19.60;63.18
35248;BME280;21380;52.194;20.520;2022-09-21T12:26:44;100933.25;;;19.61;63.22
35248;BME280;21380;52.194;20.520;2022-09-21T12:29:29;100927.16;;;19.59;62.98
35248;BME280;21380;52.194;20.520;2022-09-21T12:32:08;100917.44;;;19.51;63.15
35248;BME280;21380;52.194;20.520;2022-09-21T12:34:41;100928.91;;;19.60;63.27
35248;BME280;21380;52.194;20.520;2022-09-21T12:37:22;100922.78;;;19.61;63.12
35248;BME280;21380;52.194;20.520;2022-09-21T12:39:54;100925.44;;;19.63;63.18
35248;BME280;21380;52.194;20.520;2022-09-21T12:42:43;100926.31;;;19.64;63.16
35248;BME280;21380;52.194;20.520;2022-09-21T12:45:47;100912.34;;;19.63;63.20
35248;BME280;21380;52.194;20.520;2022-09-21T12:54:05;100908.91;;;19.66;63.07
35248;BME280;21380;52.194;20.520;2022-09-21T12:57:03;100920.22;;;19.66;63.06
35248;BME280;21380;52.194;20.520;2022-09-21T12:59:48;100922.00;;;19.67;62.99
35248;BME280;21380;52.194;20.520;2022-09-21T13:02:25;100919.31;;;19.63;63.19
35248;BME280;21380;52.194;20.520;2022-09-21T13:08:13;100911.53;;;19.69;63.13
35248;BME280;21380;52.194;20.520;2022-09-21T13:15:49;100922.84;;;19.68;63.17
35248;BME280;21380;52.194;20.520;2022-09-21T13:18:31;100930.69;;;19.66;63.08
35248;BME280;21380;52.194;20.520;2022-09-21T13:21:14;100929.78;;;19.63;63.24
35248;BME280;21380;52.194;20.520;2022-09-21T13:23:40;100942.03;;;19.65;63.14
35248;BME280;21380;52.194;20.520;2022-09-21T13:26:08;100949.91;;;19.68;63.28
35248;BME280;21380;52.194;20.520;2022-09-21T13:28:41;100949.03;;;19.68;63.17
35248;BME280;21380;52.194;20.520;2022-09-21T13:33:39;100943.78;;;19.68;63.34
35248;BME280;21380;52.194;20.520;2022-09-21T13:36:31;100943.78;;;19.66;63.31
35248;BME280;21380;52.194;20.520;2022-09-21T13:39:14;100932.41;;;19.63;63.35
35248;BME280;21380;52.194;20.520;2022-09-21T13:41:40;100936.78;;;19.65;63.25
35248;BME280;21380;52.194;20.520;2022-09-21T13:44:39;100938.53;;;19.65;63.20
35248;BME280;21380;52.194;20.520;2022-09-21T13:47:07;100940.31;;;19.66;63.08
35248;BME280;21380;52.194;20.520;2022-09-21T13:49:41;100931.56;;;19.65;63.10
35248;BME280;21380;52.194;20.520;2022-09-21T13:55:00;100934.19;;;19.67;63.16
35248;BME280;21380;52.194;20.520;2022-09-21T13:57:38;100927.16;;;19.63;63.25
35248;BME280;21380;52.194;20.520;2022-09-21T14:02:41;100927.16;;;19.64;63.20
35248;BME280;21380;52.194;20.520;2022-09-21T14:11:04;100931.63;;;19.70;63.18
35248;BME280;21380;52.194;20.520;2022-09-21T14:13:47;100926.38;;;19.70;63.18
35248;BME280;21380;52.194;20.520;2022-09-21T14:19:00;100930.75;;;19.69;63.19
35248;BME280;21380;52.194;20.520;2022-09-21T14:21:26;100932.47;;;19.69;63.29
35248;BME280;21380;52.194;20.520;2022-09-21T14:24:19;100934.22;;;19.70;63.12
35248;BME280;21380;52.194;20.520;2022-09-21T14:26:55;100920.22;;;19.63;63.15
35248;BME280;21380;52.194;20.520;2022-09-21T14:29:52;100930.69;;;19.66;63.13
35248;BME280;21380;52.194;20.520;2022-09-21T14:32:20;100924.56;;;19.64;63.35
35248;BME280;21380;52.194;20.520;2022-09-21T14:34:50;100925.44;;;19.65;63.16
35248;BME280;21380;52.194;20.520;2022-09-21T14:37:41;100937.69;;;19.69;63.21
35248;BME280;21380;52.194;20.520;2022-09-21T14:40:30;100931.59;;;19.68;63.19
35248;BME280;21380;52.194;20.520;2022-09-21T14:42:59;100908.84;;;19.63;63.01
35248;BME280;21380;52.194;20.520;2022-09-21T14:45:52;100921.09;;;19.65;63.13
35248;BME280;21380;52.194;20.520;2022-09-21T14:48:35;100919.38;;;19.69;63.25
35248;BME280;21380;52.194;20.520;2022-09-21T14:51:58;100916.75;;;19.69;63.14
35248;BME280;21380;52.194;20.520;2022-09-21T14:57:18;100923.78;;;19.71;63.05
35248;BME280;21380;52.194;20.520;2022-09-21T15:00:10;100926.41;;;19.73;63.16
35248;BME280;21380;52.194;20.520;2022-09-21T15:02:41;100922.00;;;19.70;62.92
35248;BME280;21380;52.194;20.520;2022-09-21T15:11:09;100925.34;;;18.33;65.08
35248;BME280;21380;52.194;20.520;2022-09-21T15:16:41;100920.06;;;18.86;63.55
35248;BME280;21380;52.194;20.520;2022-09-21T15:19:14;100923.78;;;19.01;63.25
35248;BME280;21380;52.194;20.520;2022-09-21T15:21:47;100923.97;;;19.13;62.89
35248;BME280;21380;52.194;20.520;2022-09-21T15:26:51;100924.16;;;19.28;62.35
35248;BME280;21380;52.194;20.520;2022-09-21T15:29:24;100916.31;;;19.28;62.41
35248;BME280;21380;52.194;20.520;2022-09-21T15:31:51;100918.06;;;19.31;62.37
35248;BME280;21380;52.194;20.520;2022-09-21T15:34:17;100926.84;;;19.33;62.24
35248;BME280;21380;52.194;20.520;2022-09-21T15:36:44;100933.03;;;19.41;62.25
35248;BME280;21380;52.194;20.520;2022-09-21T15:39:29;100938.28;;;19.43;62.27
35248;BME280;21380;52.194;20.520;2022-09-21T15:44:37;100943.56;;;19.46;62.35
35248;BME280;21380;52.194;20.520;2022-09-21T15:47:06;100933.06;;;19.43;62.29
35248;BME280;21380;52.194;20.520;2022-09-21T15:49:34;100936.56;;;19.45;62.24